Terminal Aerodrome Forecast
Issued by NWS

Home | Current Version | Previous Version | Text Only | Print | Product List | Glossary On
Versions: 1 2 3 4 5 6 7 8 9 10 11 12 13
000
FTUS45 KTFX 301100
TAFHVR
TAF
KHVR 301133Z 3012/0112 VRB06KT P6SM SCT060 BKN120
     FM301400 24009KT P6SM VCSH SCT040 BKN060
     FM301600 24012KT P6SM BKN080
     FM302100 29015G23KT P6SM SCT050 BKN080
     FM010600 28011KT P6SM SCT080 BKN120 PROB30 0107/0111 5SM -SHRA
      BKN060=

USA.gov is the U.S. government's official web portal to all federal, state and local government web resources and services.